createdAt,value
2023-02-19T03:32:53.611Z,10.64
2023-02-19T03:39:20.497Z,10.79
2023-02-19T03:46:26.153Z,10.79
2023-02-19T03:53:00.807Z,10.81
2023-02-19T04:06:07.747Z,10.61
2023-02-19T04:12:25.409Z,10.65
2023-02-19T04:18:40.084Z,10.76
2023-02-19T04:24:59.303Z,10.84
2023-02-19T04:31:20.528Z,10.76
2023-02-19T04:37:53.274Z,10.83
2023-02-19T04:44:10.357Z,10.66
2023-02-19T04:50:26.048Z,10.87
2023-02-19T04:56:34.525Z,11.01
2023-02-19T05:02:41.286Z,10.94
2023-02-19T05:08:54.368Z,10.86
2023-02-19T05:21:26.179Z,11.05
2023-02-19T05:27:40.766Z,11.07
2023-02-19T18:35:54.477Z,16.08
2023-02-19T18:42:22.298Z,16.09
2023-02-19T18:48:34.580Z,16.11
2023-02-19T18:54:40.709Z,16.03
2023-02-19T19:01:02.814Z,16.04
2023-02-19T19:07:19.219Z,16.13
2023-02-19T19:13:51.036Z,15.99
2023-02-19T19:20:01.800Z,15.80
2023-02-19T19:26:14.021Z,15.61
2023-02-19T19:38:43.684Z,15.54
2023-02-19T19:45:18.258Z,15.45
2023-02-19T19:51:33.012Z,15.34
2023-02-19T19:57:58.097Z,15.35
2023-02-19T20:04:08.205Z,15.24
2023-02-19T20:10:27.112Z,15.16
2023-02-19T20:16:44.566Z,15.05
2023-02-19T20:22:54.866Z,14.97
2023-02-19T20:29:15.599Z,14.89
2023-02-19T20:35:32.024Z,14.87
2023-02-19T20:42:01.492Z,14.88
2023-02-19T20:48:14.273Z,14.67
2023-02-19T20:54:32.313Z,14.57
2023-02-19T21:01:09.608Z,14.46
2023-02-19T21:07:23.394Z,14.32
2023-02-19T21:13:52.599Z,14.21
2023-02-19T21:20:05.946Z,14.10
2023-02-19T21:26:25.652Z,14.01
2023-02-19T21:32:41.730Z,13.80
2023-02-19T21:38:46.549Z,13.65
2023-02-19T21:44:56.959Z,13.61
2023-02-19T21:51:07.187Z,13.57
2023-02-19T21:57:14.919Z,13.65
2023-02-19T22:03:26.020Z,13.66
2023-02-19T22:10:25.334Z,13.55
2023-02-19T22:16:49.845Z,13.52
2023-02-19T22:23:00.933Z,13.45
2023-02-19T22:29:16.908Z,13.44
2023-02-19T22:35:39.254Z,13.37
2023-02-19T22:41:47.181Z,13.36
2023-02-19T22:48:00.314Z,13.18
2023-02-19T22:54:14.142Z,12.92
2023-02-19T23:00:36.172Z,12.87
2023-02-19T23:06:45.960Z,12.73
2023-02-19T23:13:00.861Z,12.74
2023-02-19T23:19:24.239Z,12.67
2023-02-19T23:32:03.239Z,12.44
2023-02-19T23:38:18.539Z,12.41
2023-02-19T23:44:28.453Z,12.42
2023-02-19T23:50:54.022Z,12.40
2023-02-19T23:57:07.176Z,12.46
